createdAt,value
2018-09-20T00:00:52.134Z,18.33
2018-09-20T00:01:52.284Z,18.24
2018-09-20T00:02:52.439Z,18.18
2018-09-20T00:03:52.594Z,18.27
2018-09-20T00:04:52.750Z,18.24
2018-09-20T00:05:52.905Z,18.18
2018-09-20T00:06:53.060Z,18.09
2018-09-20T00:07:53.215Z,17.92
2018-09-20T00:08:53.369Z,18.13
2018-09-20T00:09:53.527Z,18.00
2018-09-20T00:10:53.680Z,17.89
2018-09-20T00:11:53.830Z,17.89
2018-09-20T00:12:53.982Z,17.94
2018-09-20T00:13:54.135Z,17.84
2018-09-20T00:14:54.292Z,17.89
2018-09-20T00:15:54.445Z,17.94
2018-09-20T00:16:54.597Z,17.99
2018-09-20T00:17:54.752Z,17.81
2018-09-20T00:18:54.906Z,17.85
2018-09-20T00:19:55.059Z,17.92
2018-09-20T00:20:55.216Z,17.79
2018-09-20T00:21:55.366Z,17.91
2018-09-20T00:22:55.520Z,17.95
2018-09-20T00:23:55.673Z,17.82
2018-09-20T00:24:55.828Z,17.91
2018-09-20T00:25:55.981Z,17.95
2018-09-20T00:26:56.132Z,17.88
2018-09-20T00:27:56.286Z,17.94
2018-09-20T00:28:56.441Z,17.91
2018-09-20T00:29:56.598Z,17.84
2018-09-20T00:30:56.748Z,17.85
2018-09-20T00:31:56.902Z,17.87
2018-09-20T00:32:57.057Z,17.64
2018-09-20T00:33:57.210Z,17.63
2018-09-20T00:34:57.362Z,17.64
2018-09-20T00:35:57.517Z,17.63
2018-09-20T00:36:57.676Z,17.47
2018-09-20T00:37:57.828Z,17.38
2018-09-20T00:38:57.983Z,17.51
2018-09-20T00:39:58.139Z,17.46
2018-09-20T00:40:58.290Z,17.47
2018-09-20T00:41:58.443Z,17.41
2018-09-20T00:42:58.595Z,17.33
2018-09-20T00:43:58.749Z,17.30
2018-09-20T00:44:58.905Z,17.28
2018-09-20T00:45:59.057Z,17.35
2018-09-20T00:46:59.208Z,17.11
2018-09-20T00:47:59.363Z,17.14
2018-09-20T00:48:59.513Z,17.13
2018-09-20T00:49:59.665Z,17.18
2018-09-20T00:50:59.818Z,17.17
2018-09-20T00:51:59.971Z,17.08
2018-09-20T00:53:00.127Z,17.13
2018-09-20T00:54:00.281Z,17.00
2018-09-20T00:55:00.434Z,17.04
2018-09-20T00:56:00.588Z,16.86
2018-09-20T00:57:00.740Z,16.89
2018-09-20T00:58:00.891Z,16.95
2018-09-20T00:59:01.046Z,16.80
2018-09-20T01:00:01.199Z,16.85
2018-09-20T01:01:01.355Z,16.85
2018-09-20T01:02:01.507Z,16.78
2018-09-20T01:03:01.664Z,16.85
2018-09-20T01:04:01.814Z,16.89
2018-09-20T01:05:01.966Z,16.86
2018-09-20T01:06:02.120Z,16.78
2018-09-20T01:07:02.274Z,16.85
2018-09-20T01:08:02.428Z,16.81
2018-09-20T01:09:02.579Z,16.80
2018-09-20T01:10:02.735Z,16.70
2018-09-20T01:11:02.888Z,16.77
2018-09-20T01:12:03.042Z,16.70
2018-09-20T01:13:03.196Z,16.83
2018-09-20T01:14:03.347Z,16.80
2018-09-20T01:15:03.502Z,16.83
2018-09-20T01:16:03.655Z,16.78
2018-09-20T01:17:03.809Z,16.81
2018-09-20T01:18:03.963Z,16.86
2018-09-20T01:19:04.116Z,16.86
2018-09-20T01:20:04.268Z,16.77
2018-09-20T01:21:04.421Z,16.63
2018-09-20T01:22:04.580Z,16.71
2018-09-20T01:23:04.733Z,16.63
2018-09-20T01:24:04.893Z,16.65
2018-09-20T01:25:05.042Z,16.78
2018-09-20T01:26:05.193Z,16.70
2018-09-20T01:27:05.348Z,16.65
2018-09-20T01:28:05.501Z,16.65
2018-09-20T01:29:05.657Z,16.59
2018-09-20T01:30:05.808Z,16.65
2018-09-20T01:31:05.959Z,16.58
2018-09-20T01:32:06.112Z,16.56
2018-09-20T01:33:06.265Z,16.70
2018-09-20T01:34:06.417Z,16.78
2018-09-20T01:35:06.572Z,16.80
2018-09-20T01:36:06.725Z,16.85
2018-09-20T01:37:06.877Z,16.90
2018-09-20T01:38:07.029Z,16.80
2018-09-20T01:39:07.184Z,16.74
2018-09-20T01:40:07.335Z,16.83
2018-09-20T01:41:07.489Z,16.81
2018-09-20T01:42:07.642Z,16.93
2018-09-20T01:43:07.797Z,16.90
2018-09-20T01:44:07.949Z,16.89
2018-09-20T01:45:08.100Z,16.83
2018-09-20T01:46:08.255Z,16.81
2018-09-20T01:47:08.406Z,16.92
2018-09-20T01:48:08.559Z,16.88
2018-09-20T01:49:08.711Z,16.96
2018-09-20T01:50:08.865Z,16.93
2018-09-20T01:51:09.019Z,17.03
2018-09-20T01:52:09.171Z,16.96
2018-09-20T01:53:09.322Z,16.99
2018-09-20T01:54:09.476Z,16.99
2018-09-20T01:55:09.634Z,16.77
2018-09-20T01:56:09.783Z,16.80
2018-09-20T01:57:09.938Z,16.80
2018-09-20T01:58:10.092Z,16.60
2018-09-20T01:59:10.241Z,16.52
2018-09-20T02:00:10.396Z,16.45
2018-09-20T02:01:10.549Z,16.45
2018-09-20T02:02:10.701Z,16.49
2018-09-20T02:03:10.855Z,16.42
2018-09-20T02:04:11.009Z,16.27
2018-09-20T02:05:11.163Z,16.27
2018-09-20T02:06:11.319Z,16.25
2018-09-20T02:07:11.470Z,16.06
2018-09-20T02:08:11.623Z,16.18
2018-09-20T02:09:11.779Z,16.20
2018-09-20T02:10:11.928Z,16.15
2018-09-20T02:11:12.084Z,16.07
2018-09-20T02:12:12.237Z,16.12
2018-09-20T02:13:12.390Z,16.00
2018-09-20T02:14:12.544Z,16.01
2018-09-20T02:15:12.697Z,15.93
2018-09-20T02:16:12.853Z,15.97
2018-09-20T02:17:13.004Z,15.86
2018-09-20T02:18:13.155Z,15.93
2018-09-20T02:19:13.310Z,15.85
2018-09-20T02:20:13.462Z,15.84
2018-09-20T02:21:13.614Z,15.68
2018-09-20T02:22:13.768Z,15.75
2018-09-20T02:23:13.921Z,15.70
2018-09-20T02:24:14.073Z,15.74
2018-09-20T02:25:14.228Z,15.76
2018-09-20T02:26:14.379Z,15.78
2018-09-20T02:27:14.537Z,15.75
2018-09-20T02:28:14.685Z,15.66
2018-09-20T02:29:14.840Z,15.63
2018-09-20T02:30:14.993Z,15.66
2018-09-20T02:31:15.145Z,15.66
2018-09-20T02:32:15.309Z,15.61
2018-09-20T02:33:15.455Z,15.76
2018-09-20T02:34:15.604Z,15.70
2018-09-20T02:35:15.779Z,15.66
2018-09-20T02:36:15.911Z,15.49
2018-09-20T02:37:16.065Z,15.60
2018-09-20T02:38:16.230Z,15.60
2018-09-20T02:39:16.375Z,15.49
2018-09-20T02:40:16.525Z,15.45
2018-09-20T02:41:16.680Z,15.46
2018-09-20T02:42:16.841Z,15.46
2018-09-20T02:43:17.059Z,15.49
2018-09-20T02:44:17.140Z,15.46
2018-09-20T02:45:17.296Z,15.51
2018-09-20T02:46:17.447Z,15.43
2018-09-20T02:47:17.601Z,15.54
2018-09-20T02:48:17.754Z,15.49
2018-09-20T02:49:17.911Z,15.61
2018-09-20T02:50:18.062Z,15.61
2018-09-20T02:51:18.218Z,15.64
2018-09-20T02:52:18.373Z,15.63
2018-09-20T02:53:18.524Z,15.67
2018-09-20T02:54:18.677Z,15.51
2018-09-20T02:55:18.828Z,15.60
2018-09-20T02:56:18.986Z,15.51
2018-09-20T02:57:19.140Z,15.61
2018-09-20T02:58:19.288Z,15.67
2018-09-20T02:59:19.443Z,15.64
2018-09-20T03:00:19.595Z,15.70
2018-09-20T03:01:19.748Z,15.64
2018-09-20T03:02:19.901Z,15.63
2018-09-20T03:03:20.054Z,15.57
2018-09-20T03:04:20.216Z,15.54
2018-09-20T03:05:20.362Z,15.57
2018-09-20T03:06:20.515Z,15.48
2018-09-20T03:07:20.668Z,15.48
2018-09-20T03:08:20.820Z,15.49
2018-09-20T03:09:20.973Z,15.49
2018-09-20T03:10:21.160Z,15.36
2018-09-20T03:11:21.311Z,15.27
2018-09-20T03:12:21.463Z,15.39
2018-09-20T03:13:21.616Z,15.48
2018-09-20T03:14:21.770Z,15.42
2018-09-20T03:15:21.921Z,15.45
2018-09-20T03:16:22.078Z,15.33
2018-09-20T03:17:22.227Z,15.38
2018-09-20T03:18:22.381Z,15.46
2018-09-20T03:19:22.536Z,15.45
2018-09-20T03:20:22.689Z,15.49
2018-09-20T03:21:22.841Z,15.46
2018-09-20T03:22:22.994Z,15.46
2018-09-20T03:23:23.149Z,15.46
2018-09-20T03:24:23.301Z,15.46
2018-09-20T03:25:23.452Z,15.56
2018-09-20T03:26:23.604Z,15.49
2018-09-20T03:27:23.757Z,15.42
2018-09-20T03:28:23.910Z,15.49
2018-09-20T03:29:24.061Z,15.51
2018-09-20T03:30:24.313Z,15.48
2018-09-20T03:31:24.372Z,15.43
2018-09-20T03:32:24.521Z,15.49
2018-09-20T03:33:24.675Z,15.60
2018-09-20T03:34:24.824Z,15.51
2018-09-20T03:35:24.981Z,15.43
2018-09-20T03:36:25.129Z,15.42
2018-09-20T03:37:25.284Z,15.30
2018-09-20T03:38:25.436Z,15.27
2018-09-20T03:39:25.590Z,15.23
2018-09-20T03:40:25.743Z,15.26
2018-09-20T03:41:25.895Z,15.20
2018-09-20T03:42:26.051Z,15.20
2018-09-20T03:43:26.203Z,15.24
2018-09-20T03:44:26.356Z,15.17
2018-09-20T03:45:26.509Z,15.20
2018-09-20T03:46:26.666Z,15.24
2018-09-20T03:47:26.819Z,15.21
2018-09-20T03:48:26.973Z,15.20
2018-09-20T03:49:27.127Z,15.08
2018-09-20T03:50:27.279Z,15.11
2018-09-20T03:51:27.431Z,15.15
2018-09-20T03:52:27.583Z,15.12
2018-09-20T03:53:27.736Z,15.11
2018-09-20T03:54:27.888Z,15.09
2018-09-20T03:55:28.040Z,15.09
2018-09-20T03:56:28.194Z,15.13
2018-09-20T03:57:28.347Z,15.12
2018-09-20T03:58:28.498Z,15.09
2018-09-20T03:59:28.650Z,15.05
2018-09-20T04:00:28.805Z,15.01
2018-09-20T04:01:28.955Z,14.90
2018-09-20T04:02:29.109Z,14.88
2018-09-20T04:03:29.281Z,14.91
2018-09-20T04:04:29.424Z,14.93
2018-09-20T04:05:29.568Z,14.98
2018-09-20T04:06:29.720Z,14.88
2018-09-20T04:07:29.876Z,14.88
2018-09-20T04:08:30.024Z,14.87
2018-09-20T04:09:30.181Z,14.87
2018-09-20T04:10:30.330Z,14.90
2018-09-20T04:11:30.484Z,14.93
2018-09-20T04:12:30.634Z,14.83
2018-09-20T04:13:30.792Z,14.87
2018-09-20T04:14:30.941Z,14.88
2018-09-20T04:15:31.097Z,14.93
2018-09-20T04:16:31.249Z,14.80
2018-09-20T04:17:31.402Z,14.91
2018-09-20T04:18:31.555Z,14.88
2018-09-20T04:19:31.710Z,14.86
2018-09-20T04:20:31.861Z,14.80
2018-09-20T04:21:32.013Z,14.83
2018-09-20T04:22:32.167Z,14.83
2018-09-20T04:23:32.319Z,14.83
2018-09-20T04:24:32.471Z,14.80
2018-09-20T04:25:32.627Z,14.81
2018-09-20T04:26:32.777Z,14.81
2018-09-20T04:27:32.929Z,14.65
2018-09-20T04:28:33.083Z,14.67
2018-09-20T04:29:33.235Z,14.69
2018-09-20T04:30:33.387Z,14.83
2018-09-20T04:31:33.548Z,14.67
2018-09-20T04:32:33.692Z,14.65
2018-09-20T04:33:33.844Z,14.62
2018-09-20T04:34:34.000Z,14.61
2018-09-20T04:35:34.152Z,14.56
2018-09-20T04:36:34.308Z,14.62
2018-09-20T04:37:34.457Z,14.60
2018-09-20T04:38:34.609Z,14.69
2018-09-20T04:39:34.762Z,14.61
2018-09-20T04:40:34.915Z,14.72
2018-09-20T04:41:35.067Z,14.61
2018-09-20T04:42:35.217Z,14.56
2018-09-20T04:43:35.372Z,14.56
2018-09-20T04:44:35.522Z,14.64
2018-09-20T04:45:35.676Z,14.65
2018-09-20T04:46:35.831Z,14.60
2018-09-20T04:47:35.983Z,14.53
2018-09-20T04:48:36.139Z,14.52
2018-09-20T04:49:36.288Z,14.61
2018-09-20T04:50:36.443Z,14.56
2018-09-20T04:51:36.593Z,14.74
2018-09-20T04:52:36.748Z,14.69
2018-09-20T04:53:36.905Z,14.62
2018-09-20T04:54:37.053Z,14.62
2018-09-20T04:55:37.208Z,14.75
2018-09-20T04:56:37.361Z,14.80
2018-09-20T04:57:37.510Z,14.75
2018-09-20T04:58:37.663Z,14.75
2018-09-20T04:59:37.817Z,14.78
2018-09-20T05:00:37.969Z,14.80
2018-09-20T05:01:38.121Z,14.84
2018-09-20T05:02:38.274Z,14.84
2018-09-20T05:03:38.425Z,14.83
2018-09-20T05:04:38.578Z,14.81
2018-09-20T05:05:38.752Z,14.93
2018-09-20T05:06:38.876Z,14.75
2018-09-20T05:07:39.034Z,14.83
2018-09-20T05:08:39.190Z,14.67
2018-09-20T05:09:39.356Z,14.67
2018-09-20T05:10:39.493Z,14.64
2018-09-20T05:11:39.642Z,14.67
2018-09-20T05:12:39.796Z,14.68
2018-09-20T05:13:39.949Z,14.68
2018-09-20T05:14:40.108Z,14.65
2018-09-20T05:15:40.257Z,14.80
2018-09-20T05:16:40.408Z,14.75
2018-09-20T05:17:40.566Z,14.62
2018-09-20T05:18:40.715Z,14.62
2018-09-20T05:19:40.869Z,14.65
2018-09-20T05:20:41.022Z,14.71
2018-09-20T05:21:41.172Z,14.83
2018-09-20T05:22:41.325Z,14.81
2018-09-20T05:23:41.480Z,14.86
2018-09-20T05:24:41.632Z,14.83
2018-09-20T05:25:41.785Z,14.80
2018-09-20T05:26:41.937Z,14.74
2018-09-20T05:27:42.091Z,14.87
2018-09-20T05:28:42.246Z,14.88
2018-09-20T05:29:42.396Z,14.80
2018-09-20T05:30:42.552Z,14.74
2018-09-20T05:31:42.701Z,14.86
2018-09-20T05:32:42.859Z,14.87
2018-09-20T05:33:43.009Z,14.91
2018-09-20T05:34:43.161Z,14.93
2018-09-20T05:35:43.314Z,14.93
2018-09-20T05:36:43.471Z,14.90
2018-09-20T05:37:43.620Z,14.84
2018-09-20T05:38:43.772Z,14.84
2018-09-20T05:39:43.924Z,14.86
2018-09-20T05:40:44.077Z,14.81
2018-09-20T05:41:44.238Z,14.78
2018-09-20T05:42:44.384Z,14.87
2018-09-20T05:43:44.537Z,14.86
2018-09-20T05:44:44.694Z,14.90
2018-09-20T05:45:44.847Z,14.91
2018-09-20T05:46:44.999Z,14.93
2018-09-20T05:47:45.156Z,14.99
2018-09-20T05:48:45.305Z,15.06
2018-09-20T05:49:45.457Z,15.08
2018-09-20T05:50:45.632Z,15.03
2018-09-20T05:51:45.764Z,15.09
2018-09-20T05:52:45.916Z,15.01
2018-09-20T05:53:46.068Z,15.09
2018-09-20T05:54:46.221Z,14.93
2018-09-20T05:55:47.999Z,15.06
2018-09-20T05:56:46.532Z,15.01
2018-09-20T05:57:46.682Z,15.11
2018-09-20T05:58:46.835Z,15.06
2018-09-20T05:59:46.989Z,15.03
2018-09-20T06:00:47.143Z,15.11
2018-09-20T06:01:47.296Z,15.03
2018-09-20T06:02:47.448Z,15.06
2018-09-20T06:03:47.601Z,15.01
2018-09-20T06:04:47.754Z,15.02
2018-09-20T06:05:47.936Z,15.12
2018-09-20T06:06:48.059Z,15.12
2018-09-20T06:07:48.213Z,15.17
2018-09-20T06:08:48.364Z,15.26
2018-09-20T06:09:48.520Z,15.23
2018-09-20T06:10:48.671Z,15.27
2018-09-20T06:11:48.825Z,15.27
2018-09-20T06:12:48.978Z,15.27
2018-09-20T06:13:49.129Z,15.26
2018-09-20T06:14:49.283Z,15.24
2018-09-20T06:15:49.435Z,15.42
2018-09-20T06:16:49.588Z,15.38
2018-09-20T06:17:49.745Z,15.41
2018-09-20T06:18:49.894Z,15.41
2018-09-20T06:19:50.047Z,15.45
2018-09-20T06:20:50.200Z,15.27
2018-09-20T06:21:50.435Z,15.36
2018-09-20T06:22:50.507Z,15.35
2018-09-20T06:23:50.663Z,15.38
2018-09-20T06:24:50.817Z,15.43
2018-09-20T06:25:50.986Z,15.46
2018-09-20T06:26:51.120Z,15.59
2018-09-20T06:27:51.298Z,15.63
2018-09-20T06:28:51.455Z,15.57
2018-09-20T06:29:51.605Z,15.57
2018-09-20T06:30:51.755Z,15.51
2018-09-20T06:31:51.907Z,15.48
2018-09-20T06:32:52.062Z,15.51
2018-09-20T06:33:52.216Z,15.57
2018-09-20T06:34:52.378Z,15.59
2018-09-20T06:35:52.522Z,15.46
2018-09-20T06:36:52.703Z,15.64
2018-09-20T06:37:52.828Z,15.57
2018-09-20T06:38:52.979Z,15.60
2018-09-20T06:39:53.136Z,15.74
2018-09-20T06:40:53.296Z,15.67
2018-09-20T06:41:53.445Z,15.54
2018-09-20T06:42:53.594Z,15.60
2018-09-20T06:43:53.749Z,15.54
2018-09-20T06:44:53.905Z,15.54
2018-09-20T06:45:54.058Z,15.48
2018-09-20T06:46:54.208Z,15.51
2018-09-20T06:47:54.362Z,15.64
2018-09-20T06:48:54.515Z,15.56
2018-09-20T06:49:54.669Z,15.68
2018-09-20T06:50:54.821Z,15.68
2018-09-20T06:51:54.976Z,15.59
2018-09-20T06:52:55.129Z,15.68
2018-09-20T06:53:55.283Z,15.67
2018-09-20T06:54:55.435Z,15.70
2018-09-20T06:55:55.593Z,15.79
2018-09-20T06:56:55.741Z,15.79
2018-09-20T06:57:55.894Z,15.82
2018-09-20T06:58:56.048Z,15.94
2018-09-20T06:59:56.200Z,15.97
2018-09-20T07:00:56.353Z,15.85
2018-09-20T07:01:56.507Z,15.89
2018-09-20T07:02:56.670Z,15.94
2018-09-20T07:03:56.813Z,15.97
2018-09-20T07:04:56.968Z,16.01
2018-09-20T07:05:57.121Z,15.96
2018-09-20T07:06:57.273Z,15.94
2018-09-20T07:07:57.427Z,15.84
2018-09-20T07:08:57.580Z,15.88
2018-09-20T07:09:57.734Z,15.79
2018-09-20T07:10:57.887Z,15.92
2018-09-20T07:11:58.039Z,15.92
2018-09-20T07:12:58.192Z,15.97
2018-09-20T07:13:58.348Z,15.93
2018-09-20T07:14:58.501Z,16.01
2018-09-20T07:15:58.655Z,16.11
2018-09-20T07:16:58.807Z,16.11
2018-09-20T07:17:58.958Z,16.07
2018-09-20T07:18:59.165Z,16.22
2018-09-20T07:19:59.269Z,16.31
2018-09-20T07:20:59.423Z,16.37
2018-09-20T07:21:59.576Z,16.41
2018-09-20T07:22:59.732Z,16.53
2018-09-20T07:23:59.883Z,16.58
2018-09-20T07:25:00.036Z,16.73
2018-09-20T07:26:00.191Z,16.89
2018-09-20T07:27:00.346Z,16.92
2018-09-20T07:28:00.498Z,17.03
2018-09-20T07:29:00.658Z,17.00
2018-09-20T07:30:00.807Z,17.04
2018-09-20T07:31:00.960Z,17.06
2018-09-20T07:32:01.115Z,17.20
2018-09-20T07:33:01.268Z,17.29
2018-09-20T07:34:01.425Z,17.36
2018-09-20T07:35:01.574Z,17.32
2018-09-20T07:36:01.731Z,17.47
2018-09-20T07:37:01.885Z,17.54
2018-09-20T07:38:02.038Z,17.63
2018-09-20T07:39:02.191Z,17.64
2018-09-20T07:40:02.345Z,17.94
2018-09-20T07:41:02.497Z,17.92
2018-09-20T07:42:02.676Z,17.87
2018-09-20T07:43:02.806Z,17.88
2018-09-20T07:44:02.959Z,18.04
2018-09-20T07:45:03.120Z,18.17
2018-09-20T07:46:03.269Z,18.34
2018-09-20T07:47:03.423Z,18.33
2018-09-20T07:48:03.578Z,18.37
2018-09-20T07:49:03.731Z,18.52
2018-09-20T07:50:03.885Z,18.58
2018-09-20T07:51:04.046Z,18.65
2018-09-20T07:52:04.192Z,18.73
2018-09-20T07:53:04.347Z,18.76
2018-09-20T07:54:04.502Z,18.80
2018-09-20T07:55:04.658Z,18.83
2018-09-20T07:56:04.811Z,18.94
2018-09-20T07:57:04.967Z,19.02
2018-09-20T07:58:05.119Z,19.02
2018-09-20T07:59:05.274Z,19.06
2018-09-20T08:00:05.432Z,19.15
2018-09-20T08:01:05.585Z,19.25
2018-09-20T08:02:05.914Z,19.39
2018-09-20T08:03:05.895Z,19.42
2018-09-20T08:04:06.051Z,19.60
2018-09-20T08:05:06.207Z,19.61
2018-09-20T08:06:06.362Z,19.75
2018-09-20T08:07:06.572Z,19.66
2018-09-20T08:08:06.667Z,19.53
2018-09-20T08:09:06.823Z,19.58
2018-09-20T08:10:06.983Z,19.73
2018-09-20T08:11:07.149Z,19.83
2018-09-20T08:12:07.304Z,19.91
2018-09-20T08:13:07.457Z,19.90
2018-09-20T08:14:07.614Z,19.93
2018-09-20T08:15:07.768Z,19.97
2018-09-20T08:16:07.924Z,20.03
2018-09-20T08:17:08.079Z,20.18
2018-09-20T08:18:08.234Z,20.27
2018-09-20T08:19:08.392Z,20.33
2018-09-20T08:20:08.545Z,20.41
2018-09-20T08:21:08.700Z,20.42
2018-09-20T08:22:08.855Z,20.56
2018-09-20T08:23:09.010Z,20.39
2018-09-20T08:24:09.166Z,20.64
2018-09-20T08:25:09.322Z,20.72
2018-09-20T08:26:09.476Z,20.65
2018-09-20T08:27:09.632Z,20.77
2018-09-20T08:28:09.786Z,20.87
2018-09-20T08:29:09.942Z,20.86
2018-09-20T08:30:10.096Z,20.96
2018-09-20T08:31:10.251Z,21.08
2018-09-20T08:32:10.407Z,21.11
2018-09-20T08:33:10.564Z,21.19
2018-09-20T08:34:10.721Z,21.27
2018-09-20T08:35:10.874Z,21.35
2018-09-20T08:36:11.031Z,21.39
2018-09-20T08:37:11.204Z,21.42
2018-09-20T08:38:11.345Z,21.42
2018-09-20T08:39:11.503Z,21.45
2018-09-20T08:40:11.656Z,21.54
2018-09-20T08:41:11.810Z,21.60
2018-09-20T08:42:12.030Z,21.72
2018-09-20T08:43:12.125Z,21.71
2018-09-20T08:44:12.281Z,21.82
2018-09-20T08:45:12.436Z,21.88
2018-09-20T08:46:12.592Z,21.98
2018-09-20T08:47:12.751Z,22.01
2018-09-20T08:48:12.906Z,22.06
2018-09-20T08:49:13.063Z,22.06
2018-09-20T08:50:13.221Z,22.01
2018-09-20T08:51:13.381Z,22.19
2018-09-20T08:52:13.535Z,22.09
2018-09-20T08:53:13.692Z,22.32
2018-09-20T08:54:13.850Z,22.25
2018-09-20T08:55:14.003Z,22.44
2018-09-20T08:56:14.157Z,22.56
2018-09-20T08:57:14.372Z,22.60
2018-09-20T08:58:14.469Z,22.74
2018-09-20T08:59:14.629Z,22.89
2018-09-20T09:00:14.784Z,22.87
2018-09-20T09:01:14.946Z,23.05
2018-09-20T09:02:15.098Z,23.17
2018-09-20T09:03:15.257Z,23.26
2018-09-20T09:04:15.413Z,23.42
2018-09-20T09:05:15.570Z,23.53
2018-09-20T09:06:15.728Z,23.62
2018-09-20T09:07:15.882Z,23.70
2018-09-20T09:08:16.042Z,23.82
2018-09-20T09:09:16.198Z,23.90
2018-09-20T09:10:16.359Z,24.01
2018-09-20T09:11:16.515Z,23.90
2018-09-20T09:12:16.671Z,23.94
2018-09-20T09:13:16.827Z,24.07
2018-09-20T09:14:16.983Z,24.20
2018-09-20T09:15:17.144Z,24.26
2018-09-20T09:16:17.300Z,24.26
2018-09-20T09:17:17.460Z,24.37
2018-09-20T09:18:17.617Z,24.52
2018-09-20T09:19:17.775Z,24.54
2018-09-20T09:20:17.933Z,24.50
2018-09-20T09:21:18.091Z,24.67
2018-09-20T09:22:18.247Z,24.82
2018-09-20T09:23:18.406Z,24.80
2018-09-20T09:24:18.563Z,24.79
2018-09-20T09:25:18.723Z,24.83
2018-09-20T09:26:18.879Z,24.88
2018-09-20T09:27:19.036Z,25.07
2018-09-20T09:28:19.193Z,25.10
2018-09-20T09:29:19.351Z,25.01
2018-09-20T09:30:19.509Z,25.02
2018-09-20T09:31:19.666Z,25.02
2018-09-20T09:32:19.824Z,25.10
2018-09-20T09:33:19.981Z,25.13
2018-09-20T09:34:20.175Z,25.16
2018-09-20T09:35:20.295Z,25.20
2018-09-20T09:36:20.455Z,25.12
2018-09-20T09:37:20.614Z,25.20
2018-09-20T09:38:20.773Z,25.17
2018-09-20T09:39:20.930Z,25.32
2018-09-20T09:40:21.091Z,25.31
2018-09-20T09:41:21.250Z,25.16
2018-09-20T09:42:21.435Z,25.17
2018-09-20T09:43:21.592Z,25.35
2018-09-20T09:44:21.748Z,25.38
2018-09-20T09:45:21.908Z,25.46
2018-09-20T09:46:22.066Z,25.46
2018-09-20T09:47:22.225Z,25.46
2018-09-20T09:48:22.384Z,25.53
2018-09-20T09:49:22.542Z,25.59
2018-09-20T09:50:22.700Z,25.72
2018-09-20T09:51:22.860Z,25.69
2018-09-20T09:52:23.017Z,25.68
2018-09-20T09:53:23.174Z,25.65
2018-09-20T09:54:23.349Z,25.72
2018-09-20T09:55:23.492Z,25.80
2018-09-20T09:56:23.650Z,25.94
2018-09-20T09:57:23.809Z,25.99
2018-09-20T09:58:23.963Z,25.87
2018-09-20T09:59:24.124Z,26.01
2018-09-20T10:00:24.283Z,26.02
2018-09-20T10:01:24.440Z,26.06
2018-09-20T10:02:24.641Z,26.18
2018-09-20T10:03:24.760Z,26.35
2018-09-20T10:04:24.922Z,26.35
2018-09-20T10:05:25.078Z,26.22
2018-09-20T10:06:25.241Z,26.25
2018-09-20T10:07:25.446Z,26.42
2018-09-20T10:08:25.554Z,26.52
2018-09-20T10:09:25.714Z,26.43
2018-09-20T10:10:25.872Z,26.35
2018-09-20T10:11:26.029Z,26.47
2018-09-20T10:12:26.189Z,26.44
2018-09-20T10:13:26.411Z,26.47
2018-09-20T10:14:26.508Z,26.64
2018-09-20T10:15:26.669Z,26.52
2018-09-20T10:16:26.825Z,26.40
2018-09-20T10:17:26.986Z,26.49
2018-09-20T10:18:27.142Z,26.32
2018-09-20T10:19:27.303Z,26.36
2018-09-20T10:20:27.461Z,26.44
2018-09-20T10:21:27.621Z,26.39
2018-09-20T10:22:27.780Z,26.52
2018-09-20T10:23:27.941Z,26.58
2018-09-20T10:24:28.101Z,26.64
2018-09-20T10:25:28.263Z,26.67
2018-09-20T10:26:28.421Z,26.80
2018-09-20T10:27:28.581Z,26.81
2018-09-20T10:28:28.741Z,26.92
2018-09-20T10:29:28.903Z,26.96
2018-09-20T10:30:29.060Z,27.01
2018-09-20T10:31:29.286Z,27.17
2018-09-20T10:32:29.381Z,27.14
2018-09-20T10:33:29.540Z,27.09
2018-09-20T10:34:29.700Z,26.94
2018-09-20T10:35:29.858Z,26.86
2018-09-20T10:36:30.019Z,26.81
2018-09-20T10:37:30.181Z,26.96
2018-09-20T10:38:30.339Z,27.13
2018-09-20T10:39:30.497Z,27.19
2018-09-20T10:40:30.656Z,27.13
2018-09-20T10:41:30.816Z,27.16
2018-09-20T10:42:30.976Z,27.13
2018-09-20T10:43:31.137Z,27.23
2018-09-20T10:44:31.310Z,27.01
2018-09-20T10:45:31.456Z,26.96
2018-09-20T10:46:31.616Z,27.14
2018-09-20T10:47:31.772Z,26.98
2018-09-20T10:48:31.933Z,26.80
2018-09-20T10:49:32.095Z,26.81
2018-09-20T10:50:32.253Z,26.83
2018-09-20T10:51:32.411Z,26.89
2018-09-20T10:52:32.573Z,27.11
2018-09-20T10:53:32.731Z,27.17
2018-09-20T10:54:32.949Z,27.28
2018-09-20T10:55:33.054Z,27.21
2018-09-20T10:56:33.214Z,27.11
2018-09-20T10:57:33.372Z,27.20
2018-09-20T10:58:33.532Z,26.98
2018-09-20T10:59:33.693Z,27.11
2018-09-20T11:00:33.855Z,27.21
2018-09-20T11:01:34.012Z,27.14
2018-09-20T11:02:34.173Z,27.31
2018-09-20T11:03:34.334Z,27.39
2018-09-20T11:04:34.497Z,27.38
2018-09-20T11:05:34.655Z,27.35
2018-09-20T11:06:34.812Z,27.26
2018-09-20T11:07:34.971Z,27.28
2018-09-20T11:08:35.129Z,27.32
2018-09-20T11:09:35.289Z,27.43
2018-09-20T11:10:35.483Z,27.43
2018-09-20T11:11:35.610Z,27.59
2018-09-20T11:12:35.770Z,27.51
2018-09-20T11:13:35.930Z,27.59
2018-09-20T11:14:36.092Z,27.71
2018-09-20T11:15:36.253Z,27.84
2018-09-20T11:16:36.416Z,27.76
2018-09-20T11:17:36.571Z,27.85
2018-09-20T11:18:36.731Z,27.99
2018-09-20T11:19:36.889Z,27.73
2018-09-20T11:20:37.047Z,27.88
2018-09-20T11:21:37.208Z,27.74
2018-09-20T11:22:37.368Z,27.79
2018-09-20T11:23:37.529Z,27.76
2018-09-20T11:24:37.689Z,27.67
2018-09-20T11:25:37.853Z,27.69
2018-09-20T11:26:38.011Z,27.79
2018-09-20T11:27:38.175Z,27.89
2018-09-20T11:28:38.334Z,27.99
2018-09-20T11:29:38.493Z,27.89
2018-09-20T11:30:38.656Z,27.96
2018-09-20T11:31:38.814Z,28.01
2018-09-20T11:32:38.972Z,27.82
2018-09-20T11:33:39.133Z,27.91
2018-09-20T11:34:39.301Z,28.09
2018-09-20T11:35:39.452Z,27.99
2018-09-20T11:36:39.613Z,28.17
2018-09-20T11:37:39.776Z,28.03
2018-09-20T11:38:39.938Z,27.85
2018-09-20T11:39:40.096Z,27.79
2018-09-20T11:40:40.255Z,27.79
2018-09-20T11:41:40.423Z,27.85
2018-09-20T11:42:40.581Z,27.99
2018-09-20T11:43:40.745Z,28.13
2018-09-20T11:44:40.900Z,28.22
2018-09-20T11:45:41.066Z,28.21
2018-09-20T11:46:41.284Z,28.04
2018-09-20T11:47:41.383Z,28.07
2018-09-20T11:48:41.546Z,28.06
2018-09-20T11:49:41.707Z,27.95
2018-09-20T11:50:41.864Z,27.95
2018-09-20T11:51:42.029Z,27.86
2018-09-20T11:52:42.184Z,27.94
2018-09-20T11:53:42.343Z,27.74
2018-09-20T11:54:42.507Z,27.91
2018-09-20T11:55:42.668Z,28.10
2018-09-20T11:56:42.826Z,28.19
2018-09-20T11:57:42.992Z,28.14
2018-09-20T11:58:43.149Z,28.14
2018-09-20T11:59:43.311Z,28.25
2018-09-20T12:00:43.474Z,28.47
2018-09-20T12:01:43.638Z,28.58
2018-09-20T12:02:43.789Z,28.56
2018-09-20T12:03:43.949Z,28.77
2018-09-20T12:04:44.109Z,28.80
2018-09-20T12:05:44.270Z,28.65
2018-09-20T12:06:44.430Z,28.72
2018-09-20T12:07:44.591Z,28.36
2018-09-20T12:08:44.751Z,28.09
2018-09-20T12:09:44.912Z,28.17
2018-09-20T12:10:45.073Z,28.33
2018-09-20T12:11:45.234Z,28.51
2018-09-20T12:12:45.391Z,28.56
2018-09-20T12:13:45.552Z,28.68
2018-09-20T12:14:45.719Z,28.70
2018-09-20T12:15:45.879Z,28.77
2018-09-20T12:16:46.034Z,28.77
2018-09-20T12:17:46.200Z,28.51
2018-09-20T12:18:46.356Z,28.60
2018-09-20T12:19:46.524Z,28.80
2018-09-20T12:20:46.676Z,28.73
2018-09-20T12:21:46.840Z,28.70
2018-09-20T12:22:46.998Z,28.77
2018-09-20T12:23:47.161Z,28.77
2018-09-20T12:24:47.322Z,28.70
2018-09-20T12:25:47.533Z,28.77
2018-09-20T12:26:47.642Z,28.48
2018-09-20T12:27:47.804Z,28.36
2018-09-20T12:28:47.970Z,28.56
2018-09-20T12:29:48.133Z,28.81
2018-09-20T12:30:48.295Z,28.90
2018-09-20T12:31:48.482Z,28.91
2018-09-20T12:32:48.694Z,28.72
2018-09-20T12:33:48.774Z,28.78
2018-09-20T12:34:48.935Z,28.90
2018-09-20T12:35:49.231Z,28.88
2018-09-20T12:36:49.256Z,28.80
2018-09-20T12:37:49.416Z,28.82
2018-09-20T12:38:49.593Z,28.96
2018-09-20T12:39:49.737Z,29.10
2018-09-20T12:40:49.903Z,29.20
2018-09-20T12:41:50.063Z,29.19
2018-09-20T12:42:50.296Z,29.25
2018-09-20T12:43:50.386Z,29.33
2018-09-20T12:44:50.544Z,29.20
2018-09-20T12:45:50.708Z,28.97
2018-09-20T12:46:50.868Z,29.15
2018-09-20T12:47:51.029Z,29.15
2018-09-20T12:48:51.188Z,29.11
2018-09-20T12:49:51.351Z,29.06
2018-09-20T12:50:52.062Z,29.04
2018-09-20T12:51:51.680Z,29.11
2018-09-20T12:52:51.844Z,29.28
2018-09-20T12:53:52.000Z,29.11
2018-09-20T12:54:52.163Z,29.04